Time;durP1;ratioP1;P1;durP2;ratioP2;P2;SDS_P1;SDS_P2;PMS_P1;PMS_P2;Temp;Humidity;BMP_temperature;BMP_pressure;BME280_temperature;BME280_humidity;BME280_pressure;Samples;Min_cycle;Max_cycle;Signal;HPM_P1;HPM_P2
2021/12/14 00:01:39;;;;;;;0.00;0.00;;;;;24.10;100016.00;;;;4891398;29;20068;-76
2021/12/14 00:04:17;;;;;;;0.00;0.00;;;;;24.10;100019.00;;;;4891357;29;20140;-76
2021/12/14 00:06:49;;;;;;;0.00;0.00;;;;;24.10;100021.00;;;;4891376;29;20080;-74
2021/12/14 00:09:26;;;;;;;0.43;0.28;;;;;24.00;100047.00;;;;4891896;29;20045;-75
2021/12/14 00:15:04;;;;;;;0.32;0.22;;;;;24.00;100074.00;;;;4891248;29;20055;-75
2021/12/14 00:17:49;;;;;;;0.08;0.08;;;;;23.90;100059.00;;;;4891088;29;20065;-74
2021/12/14 00:20:29;;;;;;;0.08;0.08;;;;;23.90;100053.00;;;;4891156;29;20056;-75
2021/12/14 00:25:40;;;;;;;0.00;0.00;;;;;23.90;100061.00;;;;4893804;29;20140;-75
2021/12/14 00:28:24;;;;;;;0.00;0.00;;;;;23.80;100085.00;;;;4894438;29;20561;-75
2021/12/14 00:30:59;;;;;;;0.65;0.32;;;;;23.80;100094.00;;;;4893294;29;20505;-76
2021/12/14 00:33:34;;;;;;;0.80;0.35;;;;;23.80;100063.00;;;;4894617;29;20052;-75
2021/12/14 00:36:07;;;;;;;0.10;0.10;;;;;23.90;100084.00;;;;4909068;29;20057;-74
2021/12/14 00:38:38;;;;;;;0.22;0.20;;;;;23.80;100096.00;;;;4894303;29;20048;-74
2021/12/14 00:41:23;;;;;;;0.13;0.13;;;;;23.80;100076.00;;;;4894534;29;20124;-74
2021/12/14 00:43:53;;;;;;;0.28;0.28;;;;;23.90;100108.00;;;;4907874;29;20059;-74
2021/12/14 00:46:23;;;;;;;0.20;0.20;;;;;24.00;100096.00;;;;4894261;29;20576;-74
2021/12/14 00:48:53;;;;;;;1.27;0.82;;;;;23.90;100114.00;;;;4894982;29;20096;-74
2021/12/14 00:51:28;;;;;;;0.00;0.00;;;;;23.80;100113.00;;;;4908796;29;20112;-74
2021/12/14 00:54:00;;;;;;;0.00;0.00;;;;;23.70;100114.00;;;;4894555;29;20041;-73
2021/12/14 00:56:33;;;;;;;0.00;0.00;;;;;23.70;100120.00;;;;4894537;29;20052;-75
2021/12/14 00:59:04;;;;;;;0.00;0.00;;;;;23.60;100114.00;;;;4893860;29;20055;-75
2021/12/14 01:01:53;;;;;;;0.00;0.00;;;;;23.60;100129.00;;;;4909210;29;20620;-75
2021/12/14 01:04:29;;;;;;;0.00;0.00;;;;;23.60;100132.00;;;;4894704;29;20112;-74
2021/12/14 01:07:00;;;;;;;0.00;0.00;;;;;23.50;100149.00;;;;4892244;29;20112;-74
2021/12/14 01:09:35;;;;;;;0.10;0.08;;;;;23.50;100122.00;;;;4893688;29;20048;-74
2021/12/14 01:12:13;;;;;;;0.20;0.17;;;;;23.70;100143.00;;;;4893108;29;20134;-74
2021/12/14 01:15:22;;;;;;;2.35;1.33;;;;;23.80;100137.00;;;;4901357;29;20071;-74
2021/12/14 01:18:01;;;;;;;0.00;0.00;;;;;23.80;100138.00;;;;4922510;29;20080;-74
2021/12/14 01:20:39;;;;;;;0.00;0.00;;;;;23.70;100112.00;;;;4907861;29;20053;-74
2021/12/14 01:23:17;;;;;;;0.00;0.00;;;;;23.70;100136.00;;;;4893939;29;20048;-74
2021/12/14 01:25:51;;;;;;;0.00;0.00;;;;;23.60;100132.00;;;;4908093;29;20060;-73
2021/12/14 01:28:26;;;;;;;0.13;0.10;;;;;23.60;100102.00;;;;4907684;29;20567;-75
2021/12/14 01:31:27;;;;;;;0.00;0.00;;;;;23.50;100121.00;;;;4893602;29;20048;-75
2021/12/14 01:34:20;;;;;;;0.00;0.00;;;;;23.50;100127.00;;;;4908647;29;20063;-75
2021/12/14 01:36:56;;;;;;;0.00;0.00;;;;;23.50;100119.00;;;;4893267;29;20477;-75
2021/12/14 01:42:17;;;;;;;0.00;0.00;;;;;23.50;100134.00;;;;4893469;29;20052;-74
2021/12/14 01:45:16;;;;;;;0.00;0.00;;;;;23.50;100112.00;;;;4892256;29;20137;-75
2021/12/14 01:47:55;;;;;;;0.00;0.00;;;;;23.50;100110.00;;;;4890804;29;20091;-74
2021/12/14 01:51:00;;;;;;;0.00;0.00;;;;;23.50;100123.00;;;;4893220;29;20139;-73
2021/12/14 01:53:43;;;;;;;0.00;0.00;;;;;23.60;100098.00;;;;4893694;29;20053;-74
2021/12/14 01:56:15;;;;;;;0.00;0.00;;;;;23.50;100099.00;;;;4907779;29;20063;-74
2021/12/14 01:58:56;;;;;;;0.00;0.00;;;;;23.40;100101.00;;;;4908205;29;20512;-75
2021/12/14 02:01:36;;;;;;;0.00;0.00;;;;;23.40;100113.00;;;;4908072;29;20048;-76
2021/12/14 02:04:18;;;;;;;0.00;0.00;;;;;23.30;100113.00;;;;4907492;29;20805;-75
2021/12/14 02:07:05;;;;;;;0.00;0.00;;;;;23.30;100116.00;;;;4892683;29;20401;-74
2021/12/14 02:09:37;;;;;;;0.00;0.00;;;;;23.20;100111.00;;;;4893410;29;20052;-75
2021/12/14 02:12:21;;;;;;;0.00;0.00;;;;;23.30;100115.00;;;;4892037;29;20053;-74
2021/12/14 02:14:51;;;;;;;0.00;0.00;;;;;23.30;100107.00;;;;4891676;29;20173;-73
2021/12/14 02:17:23;;;;;;;0.07;0.07;;;;;23.30;100119.00;;;;4906887;29;20141;-74
2021/12/14 02:19:53;;;;;;;0.00;0.00;;;;;23.20;100105.00;;;;4907841;29;20299;-73
2021/12/14 02:22:22;;;;;;;0.00;0.00;;;;;23.10;100109.00;;;;4907343;29;20072;-75
2021/12/14 02:24:52;;;;;;;0.00;0.00;;;;;23.00;100078.00;;;;4907658;29;20513;-74
2021/12/14 02:27:21;;;;;;;0.00;0.00;;;;;23.00;100092.00;;;;4907202;29;20063;-73
2021/12/14 02:29:54;;;;;;;0.00;0.00;;;;;23.00;100104.00;;;;4906595;29;20052;-74
2021/12/14 02:32:27;;;;;;;0.00;0.00;;;;;22.90;100112.00;;;;4906913;29;20430;-73
2021/12/14 02:35:03;;;;;;;0.00;0.00;;;;;22.80;100093.00;;;;4892745;29;20527;-75
2021/12/14 02:38:04;;;;;;;0.00;0.00;;;;;22.80;100108.00;;;;4893096;29;20436;-74
2021/12/14 02:40:56;;;;;;;0.00;0.00;;;;;22.80;100111.00;;;;4891065;29;20056;-74
2021/12/14 02:43:36;;;;;;;0.00;0.00;;;;;22.70;100116.00;;;;4891950;29;20052;-74
2021/12/14 02:46:14;;;;;;;0.00;0.00;;;;;22.70;100116.00;;;;4906782;29;20532;-74
2021/12/14 02:48:49;;;;;;;0.10;0.10;;;;;22.60;100109.00;;;;4905572;29;20561;-75
2021/12/14 02:51:26;;;;;;;0.00;0.00;;;;;22.70;100120.00;;;;4906737;29;20056;-74
2021/12/14 02:54:03;;;;;;;0.10;0.10;;;;;22.70;100092.00;;;;4906181;29;20053;-75
2021/12/14 02:56:36;;;;;;;0.00;0.00;;;;;22.70;100097.00;;;;4906682;29;20053;-74
2021/12/14 02:59:13;;;;;;;0.00;0.00;;;;;22.60;100078.00;;;;4890503;29;20061;-74
2021/12/14 03:01:45;;;;;;;0.00;0.00;;;;;22.60;100073.00;;;;4906568;29;20049;-75
2021/12/14 03:04:17;;;;;;;0.00;0.00;;;;;22.50;100073.00;;;;4906555;29;20548;-75
2021/12/14 03:06:54;;;;;;;0.00;0.00;;;;;22.50;100058.00;;;;4906964;29;20057;-73
2021/12/14 03:09:39;;;;;;;0.00;0.00;;;;;22.60;100061.00;;;;4891700;29;20544;-73
2021/12/14 03:12:14;;;;;;;0.00;0.00;;;;;22.70;100078.00;;;;4892217;29;20410;-73
2021/12/14 03:15:07;;;;;;;0.10;0.10;;;;;22.70;100077.00;;;;4891918;29;20053;-73
2021/12/14 03:17:37;;;;;;;0.00;0.00;;;;;22.80;100080.00;;;;4906069;29;20057;-74
2021/12/14 03:20:15;;;;;;;0.00;0.00;;;;;22.70;100081.00;;;;4906315;29;20049;-75
2021/12/14 03:22:48;;;;;;;0.00;0.00;;;;;22.70;100098.00;;;;4892401;29;20052;-74
2021/12/14 03:25:19;;;;;;;0.00;0.00;;;;;22.70;100091.00;;;;4892257;29;20068;-74
2021/12/14 03:27:52;;;;;;;0.00;0.00;;;;;22.70;100098.00;;;;4905316;29;20052;-74
2021/12/14 03:30:32;;;;;;;0.00;0.00;;;;;22.70;100098.00;;;;4891997;29;20068;-74
2021/12/14 03:33:13;;;;;;;1.92;0.70;;;;;22.70;100086.00;;;;4906383;29;20059;-75
2021/12/14 03:36:06;;;;;;;0.00;0.00;;;;;22.70;100081.00;;;;4889901;29;20524;-74
2021/12/14 03:39:10;;;;;;;0.00;0.00;;;;;22.70;100086.00;;;;4906427;29;20108;-74
2021/12/14 03:41:54;;;;;;;0.05;0.05;;;;;22.70;100059.00;;;;4836382;29;20066;-74
2021/12/14 03:44:40;;;;;;;0.00;0.00;;;;;22.60;100066.00;;;;4888932;29;20056;-74
2021/12/14 03:47:14;;;;;;;0.00;0.00;;;;;22.70;100088.00;;;;4890417;29;20066;-73
2021/12/14 03:49:49;;;;;;;0.00;0.00;;;;;22.80;100085.00;;;;4906223;29;20136;-75
2021/12/14 03:52:22;;;;;;;0.00;0.00;;;;;22.80;100070.00;;;;4890367;29;20075;-75
2021/12/14 03:54:54;;;;;;;0.35;0.20;;;;;22.70;100073.00;;;;4906237;29;20489;-74
2021/12/14 03:57:24;;;;;;;0.00;0.00;;;;;22.70;100067.00;;;;4905904;29;20052;-74
2021/12/14 03:59:56;;;;;;;0.00;0.00;;;;;22.70;100047.00;;;;4893144;29;20413;-74
2021/12/14 04:02:27;;;;;;;0.00;0.00;;;;;22.70;100049.00;;;;4909788;29;20513;-74
2021/12/14 04:05:04;;;;;;;0.00;0.00;;;;;22.70;100047.00;;;;4895969;29;20048;-74
2021/12/14 04:07:38;;;;;;;0.00;0.00;;;;;22.80;100073.00;;;;4909246;29;20082;-74
2021/12/14 04:10:22;;;;;;;0.00;0.00;;;;;22.80;100054.00;;;;4910180;29;20092;-74
2021/12/14 04:12:53;;;;;;;0.55;0.55;;;;;22.80;100060.00;;;;4909444;29;20100;-75
2021/12/14 04:15:24;;;;;;;0.00;0.00;;;;;22.90;100085.00;;;;4910028;29;20505;-74
2021/12/14 04:17:55;;;;;;;0.00;0.00;;;;;22.90;100062.00;;;;4909606;29;20135;-74
2021/12/14 04:20:34;;;;;;;0.00;0.00;;;;;22.90;100079.00;;;;4909360;29;20083;-75
2021/12/14 04:23:12;;;;;;;0.00;0.00;;;;;22.80;100062.00;;;;4909581;29;20107;-74
2021/12/14 04:25:42;;;;;;;0.00;0.00;;;;;22.80;100056.00;;;;4909435;29;20073;-74
2021/12/14 04:28:16;;;;;;;0.00;0.00;;;;;22.70;100062.00;;;;4909006;29;20619;-74
2021/12/14 04:30:46;;;;;;;0.00;0.00;;;;;22.70;100080.00;;;;4894418;29;20059;-75
2021/12/14 04:33:22;;;;;;;0.43;0.43;;;;;22.50;100057.00;;;;4909363;29;20059;-75
2021/12/14 04:35:53;;;;;;;0.00;0.00;;;;;22.50;100056.00;;;;4892552;29;20468;-74
2021/12/14 04:38:30;;;;;;;0.00;0.00;;;;;22.50;100049.00;;;;4894084;29;20432;-74
2021/12/14 04:52:27;;;;;;;0.00;0.00;;;;;22.30;100057.00;;;;4909029;29;20139;-74
2021/12/14 04:55:05;;;;;;;0.00;0.00;;;;;22.20;100051.00;;;;4893237;29;20063;-74
2021/12/14 04:57:43;;;;;;;0.00;0.00;;;;;22.20;100033.00;;;;4898258;29;20520;-76
2021/12/14 05:00:34;;;;;;;0.00;0.00;;;;;22.10;100034.00;;;;4917246;29;20053;-74
2021/12/14 05:03:23;;;;;;;2.83;0.60;;;;;22.10;100026.00;;;;4905435;29;20482;-74
2021/12/14 05:06:09;;;;;;;0.55;0.50;;;;;22.10;100014.00;;;;4910296;29;20109;-74
2021/12/14 05:11:17;;;;;;;0.00;0.00;;;;;22.00;100024.00;;;;4907788;29;20056;-75
2021/12/14 05:13:59;;;;;;;0.20;0.20;;;;;22.00;100015.00;;;;4908905;29;20049;-74
2021/12/14 05:16:41;;;;;;;0.00;0.00;;;;;22.10;100020.00;;;;4908368;29;20080;-74
2021/12/14 05:19:34;;;;;;;0.00;0.00;;;;;22.10;100005.00;;;;4908706;29;20068;-75
2021/12/14 05:22:11;;;;;;;0.13;0.13;;;;;22.20;100025.00;;;;4892448;29;20459;-74
2021/12/14 05:25:05;;;;;;;0.00;0.00;;;;;22.20;100027.00;;;;4908463;29;20049;-74
2021/12/14 05:27:44;;;;;;;0.00;0.00;;;;;22.30;100027.00;;;;4907929;29;20509;-75
2021/12/14 05:30:17;;;;;;;0.15;0.15;;;;;22.40;100032.00;;;;4909234;29;20068;-74
2021/12/14 05:33:06;;;;;;;0.08;0.08;;;;;22.40;100031.00;;;;4908695;29;20049;-76
2021/12/14 05:35:39;;;;;;;0.20;0.20;;;;;22.50;100032.00;;;;4893970;29;20056;-74
2021/12/14 05:38:12;;;;;;;0.00;0.00;;;;;22.50;100031.00;;;;4908742;29;20060;-74
2021/12/14 05:43:20;;;;;;;0.00;0.00;;;;;22.30;100019.00;;;;4908403;29;20100;-77
2021/12/14 05:46:12;;;;;;;0.00;0.00;;;;;22.30;100026.00;;;;4890772;29;20179;-74
2021/12/14 05:48:58;;;;;;;0.00;0.00;;;;;22.30;100046.00;;;;4907762;29;20821;-77
2021/12/14 05:51:30;;;;;;;0.20;0.20;;;;;22.20;100033.00;;;;4893505;29;20857;-73
2021/12/14 05:54:01;;;;;;;0.00;0.00;;;;;22.20;100010.00;;;;4893218;29;20071;-75
2021/12/14 05:56:31;;;;;;;0.00;0.00;;;;;22.20;100006.00;;;;4907974;29;20516;-75
2021/12/14 05:59:04;;;;;;;0.00;0.00;;;;;22.10;100020.00;;;;4907732;29;20056;-74
2021/12/14 06:01:35;;;;;;;0.00;0.00;;;;;22.10;100016.00;;;;4907539;29;20504;-75
2021/12/14 06:04:10;;;;;;;0.00;0.00;;;;;22.20;99997.00;;;;4907015;29;20045;-74
2021/12/14 06:06:45;;;;;;;0.00;0.00;;;;;22.30;99997.00;;;;4907568;29;20108;-75
2021/12/14 06:09:25;;;;;;;0.00;0.00;;;;;22.20;100000.00;;;;4908108;29;20060;-74
2021/12/14 06:12:26;;;;;;;0.00;0.00;;;;;22.20;99991.00;;;;4890885;29;20070;-75
2021/12/14 06:14:59;;;;;;;1.08;0.88;;;;;22.10;99984.00;;;;4906715;29;20070;-74
2021/12/14 06:17:34;;;;;;;3.33;0.65;;;;;22.10;100010.00;;;;4907467;29;20532;-74
2021/12/14 06:20:07;;;;;;;0.00;0.00;;;;;22.10;100007.00;;;;4907530;29;20048;-74
2021/12/14 06:22:39;;;;;;;1.00;0.85;;;;;22.10;99997.00;;;;4891525;29;20049;-74
2021/12/14 06:25:16;;;;;;;0.30;0.30;;;;;22.10;99998.00;;;;4906785;29;20060;-74
2021/12/14 06:27:47;;;;;;;0.00;0.00;;;;;22.10;100000.00;;;;4906822;29;20139;-74
2021/12/14 06:30:25;;;;;;;0.00;0.00;;;;;22.10;100009.00;;;;4893346;29;20041;-74
2021/12/14 06:33:06;;;;;;;0.30;0.22;;;;;22.20;99993.00;;;;4907484;29;20458;-76
2021/12/14 06:35:41;;;;;;;0.00;0.00;;;;;22.20;100006.00;;;;4892790;29;20057;-75
2021/12/14 06:38:30;;;;;;;0.00;0.00;;;;;22.20;99985.00;;;;4891472;29;20064;-73
2021/12/14 06:41:13;;;;;;;0.00;0.00;;;;;22.20;100005.00;;;;4906871;29;20056;-76
2021/12/14 06:43:56;;;;;;;0.00;0.00;;;;;22.10;100016.00;;;;4906583;29;20048;-76
2021/12/14 06:46:32;;;;;;;0.00;0.00;;;;;22.10;100016.00;;;;4907131;29;20052;-74
2021/12/14 06:49:15;;;;;;;0.00;0.00;;;;;22.10;100007.00;;;;4906811;29;20692;-76
2021/12/14 06:51:51;;;;;;;0.00;0.00;;;;;22.10;99982.00;;;;4891216;29;20045;-74
2021/12/14 06:54:44;;;;;;;0.00;0.00;;;;;22.10;99997.00;;;;4907652;29;20478;-74
2021/12/14 06:57:40;;;;;;;0.00;0.00;;;;;22.10;99997.00;;;;4890181;29;20233;-74
2021/12/14 07:00:20;;;;;;;0.00;0.00;;;;;22.10;99988.00;;;;4906184;29;20139;-75
2021/12/14 07:02:55;;;;;;;0.00;0.00;;;;;22.10;99982.00;;;;4906499;29;20057;-74
2021/12/14 07:05:47;;;;;;;0.05;0.05;;;;;22.20;99991.00;;;;4890873;29;20085;-74
2021/12/14 07:08:24;;;;;;;0.00;0.00;;;;;22.10;99968.00;;;;4906635;29;20072;-74
2021/12/14 07:10:55;;;;;;;0.00;0.00;;;;;22.10;99995.00;;;;4891923;29;20099;-74
2021/12/14 07:13:34;;;;;;;0.00;0.00;;;;;22.20;99992.00;;;;4891636;29;20053;-75
2021/12/14 07:16:19;;;;;;;0.10;0.10;;;;;22.20;99985.00;;;;4892165;29;20044;-74
2021/12/14 07:18:55;;;;;;;0.00;0.00;;;;;22.20;99993.00;;;;4892394;29;20072;-73
2021/12/14 07:21:36;;;;;;;0.00;0.00;;;;;22.10;100021.00;;;;4891777;29;20485;-75
2021/12/14 07:24:24;;;;;;;0.00;0.00;;;;;22.10;100001.00;;;;4892220;29;20037;-74
2021/12/14 07:27:15;;;;;;;0.00;0.00;;;;;22.10;100005.00;;;;4891818;29;20520;-74
2021/12/14 07:29:46;;;;;;;0.00;0.00;;;;;22.10;100008.00;;;;4891226;29;20048;-75
2021/12/14 07:32:37;;;;;;;0.30;0.30;;;;;22.10;99999.00;;;;4891420;29;20087;-75
2021/12/14 07:35:39;;;;;;;0.00;0.00;;;;;22.10;100032.00;;;;4905452;29;20408;-74
2021/12/14 07:38:21;;;;;;;0.00;0.00;;;;;22.10;100037.00;;;;4891823;29;20052;-74
2021/12/14 07:41:13;;;;;;;0.30;0.30;;;;;22.10;100043.00;;;;4893301;29;20048;-75
2021/12/14 07:43:45;;;;;;;0.00;0.00;;;;;22.10;100061.00;;;;4891994;29;20050;-74
2021/12/14 07:46:22;;;;;;;0.00;0.00;;;;;22.10;100070.00;;;;4890283;29;20062;-75
2021/12/14 07:49:06;;;;;;;0.00;0.00;;;;;22.20;100076.00;;;;4891261;29;20135;-75
2021/12/14 07:51:38;;;;;;;0.00;0.00;;;;;22.10;100060.00;;;;4905818;29;20076;-74
2021/12/14 07:54:15;;;;;;;0.00;0.00;;;;;22.10;100068.00;;;;4891733;29;20048;-75
2021/12/14 07:56:48;;;;;;;0.00;0.00;;;;;22.00;100067.00;;;;4890710;29;20112;-75
2021/12/14 07:59:31;;;;;;;0.00;0.00;;;;;22.00;100070.00;;;;4891062;29;20325;-76
2021/12/14 08:02:13;;;;;;;1.55;0.47;;;;;22.00;100045.00;;;;4891477;29;20049;-74
2021/12/14 08:04:50;;;;;;;0.00;0.00;;;;;21.90;100040.00;;;;4891556;29;20075;-74
2021/12/14 08:07:35;;;;;;;0.13;0.13;;;;;21.90;100063.00;;;;4891082;29;20115;-74
2021/12/14 08:10:16;;;;;;;0.00;0.00;;;;;21.80;100073.00;;;;4891760;29;20484;-74
2021/12/14 08:12:53;;;;;;;0.28;0.28;;;;;21.80;100085.00;;;;4891451;29;20041;-74
2021/12/14 08:15:37;;;;;;;0.00;0.00;;;;;21.80;100065.00;;;;4891324;29;20096;-75
2021/12/14 08:18:08;;;;;;;0.00;0.00;;;;;21.80;100062.00;;;;4891272;29;20083;-74
2021/12/14 08:21:11;;;;;;;0.00;0.00;;;;;21.80;100092.00;;;;4891400;29;20049;-75
2021/12/14 08:23:56;;;;;;;0.00;0.00;;;;;21.80;100074.00;;;;4891796;29;20048;-74
2021/12/14 08:26:27;;;;;;;0.00;0.00;;;;;21.80;100090.00;;;;4891108;29;20125;-73
2021/12/14 08:29:16;;;;;;;0.00;0.00;;;;;21.80;100098.00;;;;4904597;29;20163;-73
2021/12/14 08:32:05;;;;;;;0.00;0.00;;;;;21.80;100099.00;;;;4891017;29;20052;-75
2021/12/14 08:34:39;;;;;;;0.00;0.00;;;;;21.90;100118.00;;;;4889839;29;20045;-75
2021/12/14 08:37:39;;;;;;;0.00;0.00;;;;;22.00;100117.00;;;;4891127;29;20604;-74
2021/12/14 08:40:15;;;;;;;0.00;0.00;;;;;22.00;100127.00;;;;4890917;29;20053;-75
2021/12/14 08:43:02;;;;;;;0.00;0.00;;;;;22.00;100120.00;;;;4890532;29;20052;-73
2021/12/14 08:45:40;;;;;;;0.10;0.10;;;;;21.90;100112.00;;;;4891275;29;20093;-74
2021/12/14 08:48:15;;;;;;;0.00;0.00;;;;;21.90;100131.00;;;;4895109;29;20054;-75
2021/12/14 08:51:15;;;;;;;0.00;0.00;;;;;21.90;100142.00;;;;4902233;29;20049;-76
2021/12/14 08:53:50;;;;;;;0.00;0.00;;;;;21.90;100130.00;;;;4897440;29;20088;-76
2021/12/14 08:56:21;;;;;;;0.00;0.00;;;;;21.90;100134.00;;;;4894373;29;20041;-76
2021/12/14 08:58:52;;;;;;;0.00;0.00;;;;;21.90;100117.00;;;;4894363;29;20072;-75
2021/12/14 09:01:26;;;;;;;0.00;0.00;;;;;21.90;100131.00;;;;4893439;29;20060;-76
2021/12/14 09:04:10;;;;;;;0.00;0.00;;;;;21.90;100132.00;;;;4908032;29;20548;-78
2021/12/14 09:06:43;;;;;;;0.00;0.00;;;;;21.90;100138.00;;;;4893912;29;20528;-75
2021/12/14 09:09:17;;;;;;;0.03;0.03;;;;;21.90;100142.00;;;;4893934;29;20048;-77
2021/12/14 09:11:49;;;;;;;0.00;0.00;;;;;21.90;100153.00;;;;4894400;29;20044;-78
2021/12/14 09:14:19;;;;;;;0.00;0.00;;;;;21.90;100138.00;;;;4894147;29;20699;-76
2021/12/14 09:16:54;;;;;;;0.00;0.00;;;;;21.90;100133.00;;;;4894352;29;20078;-77
2021/12/14 09:19:46;;;;;;;0.00;0.00;;;;;21.90;100144.00;;;;4894437;29;20051;-77
2021/12/14 09:22:41;;;;;;;0.00;0.00;;;;;22.00;100138.00;;;;4894074;29;20059;-76
2021/12/14 09:25:15;;;;;;;0.00;0.00;;;;;22.00;100128.00;;;;4893718;29;20080;-76
2021/12/14 09:27:46;;;;;;;0.00;0.00;;;;;22.00;100141.00;;;;4894375;29;20115;-76
2021/12/14 09:30:19;;;;;;;0.10;0.10;;;;;22.00;100132.00;;;;4893959;29;20076;-76
2021/12/14 09:32:50;;;;;;;0.13;0.13;;;;;22.00;100141.00;;;;4893591;29;20159;-76
2021/12/14 09:35:24;;;;;;;0.28;0.28;;;;;22.10;100152.00;;;;4893517;29;20116;-76
2021/12/14 09:37:58;;;;;;;0.00;0.00;;;;;22.10;100151.00;;;;4908269;29;20162;-76
2021/12/14 09:40:36;;;;;;;0.00;0.00;;;;;22.10;100167.00;;;;4893690;29;20055;-76
2021/12/14 09:43:06;;;;;;;0.47;0.47;;;;;22.10;100154.00;;;;4892999;29;20052;-76
2021/12/14 09:45:42;;;;;;;0.00;0.00;;;;;22.20;100168.00;;;;4893065;29;20513;-76
2021/12/14 09:48:19;;;;;;;0.28;0.28;;;;;22.20;100154.00;;;;4893417;29;20053;-76
2021/12/14 09:50:51;;;;;;;0.00;0.00;;;;;22.20;100180.00;;;;4892955;29;20054;-74
2021/12/14 09:53:24;;;;;;;0.00;0.00;;;;;22.30;100168.00;;;;4893865;29;20203;-74
2021/12/14 09:55:57;;;;;;;3.33;2.65;;;;;22.40;100167.00;;;;4892364;29;20049;-75
2021/12/14 09:58:34;;;;;;;0.00;0.00;;;;;22.40;100187.00;;;;4892691;29;20079;-76
2021/12/14 10:01:11;;;;;;;0.00;0.00;;;;;22.40;100197.00;;;;4892716;29;20131;-77
2021/12/14 10:03:46;;;;;;;0.00;0.00;;;;;22.50;100202.00;;;;4892712;29;20044;-76
2021/12/14 10:06:21;;;;;;;0.00;0.00;;;;;22.40;100208.00;;;;4892036;29;20060;-76
2021/12/14 10:08:59;;;;;;;0.00;0.00;;;;;22.40;100233.00;;;;4892465;29;20060;-77
2021/12/14 10:11:59;;;;;;;1.10;0.60;;;;;22.40;100231.00;;;;4893158;29;20041;-76
2021/12/14 10:14:36;;;;;;;0.30;0.30;;;;;22.40;100233.00;;;;4892729;29;20044;-77
2021/12/14 10:17:10;;;;;;;0.00;0.00;;;;;22.40;100211.00;;;;4892481;29;20555;-76
2021/12/14 10:19:41;;;;;;;0.00;0.00;;;;;22.50;100220.00;;;;4892304;29;20041;-77
2021/12/14 10:22:15;;;;;;;0.20;0.20;;;;;22.50;100212.00;;;;4892534;29;20568;-75
2021/12/14 10:24:45;;;;;;;0.00;0.00;;;;;22.60;100233.00;;;;4892249;29;20474;-76
2021/12/14 10:27:20;;;;;;;0.03;0.03;;;;;22.60;100237.00;;;;4892316;29;20053;-77
2021/12/14 10:29:51;;;;;;;0.10;0.03;;;;;22.60;100215.00;;;;4892281;29;20049;-75
2021/12/14 10:32:33;;;;;;;0.00;0.00;;;;;22.60;100214.00;;;;4892843;29;20561;-76
2021/12/14 10:35:10;;;;;;;0.00;0.00;;;;;22.60;100216.00;;;;4892261;29;20070;-76
2021/12/14 10:38:18;;;;;;;0.00;0.00;;;;;22.70;100198.00;;;;4892465;29;20085;-76
2021/12/14 10:43:55;;;;;;;0.00;0.00;;;;;22.70;100221.00;;;;4892468;29;20132;-77
2021/12/14 10:46:32;;;;;;;0.00;0.00;;;;;22.70;100211.00;;;;4892284;29;20511;-76
2021/12/14 10:49:02;;;;;;;0.00;0.00;;;;;22.80;100215.00;;;;4891744;29;20048;-76
2021/12/14 10:51:38;;;;;;;0.00;0.00;;;;;22.70;100233.00;;;;4892680;29;20056;-77
2021/12/14 10:54:12;;;;;;;0.00;0.00;;;;;22.80;100230.00;;;;4892459;29;20128;-76
2021/12/14 10:56:53;;;;;;;0.32;0.32;;;;;22.90;100259.00;;;;4891858;29;20041;-75
2021/12/14 10:59:26;;;;;;;0.00;0.00;;;;;22.90;100249.00;;;;4891972;29;20081;-74
2021/12/14 11:01:57;;;;;;;0.00;0.00;;;;;22.80;100238.00;;;;4892269;29;20417;-75
2021/12/14 11:04:40;;;;;;;0.00;0.00;;;;;22.80;100248.00;;;;4892066;29;20053;-76
2021/12/14 11:07:18;;;;;;;0.00;0.00;;;;;22.80;100246.00;;;;4891751;29;20128;-75
2021/12/14 11:09:53;;;;;;;0.00;0.00;;;;;22.90;100267.00;;;;4890742;29;20079;-75
2021/12/14 11:12:33;;;;;;;0.00;0.00;;;;;23.00;100265.00;;;;4891819;29;20045;-76
2021/12/14 11:15:12;;;;;;;0.00;0.00;;;;;23.10;100251.00;;;;4891867;29;20101;-75
2021/12/14 11:20:35;;;;;;;0.00;0.00;;;;;23.10;100255.00;;;;4891659;29;20041;-77
2021/12/14 11:23:29;;;;;;;0.00;0.00;;;;;23.20;100234.00;;;;4891060;29;20055;-75
2021/12/14 11:26:02;;;;;;;0.00;0.00;;;;;23.20;100248.00;;;;4892182;29;20052;-76
2021/12/14 11:28:38;;;;;;;0.00;0.00;;;;;23.20;100223.00;;;;4905609;29;20053;-77
2021/12/14 11:31:12;;;;;;;0.00;0.00;;;;;23.30;100243.00;;;;4892161;29;20040;-76
2021/12/14 11:34:14;;;;;;;0.00;0.00;;;;;23.40;100230.00;;;;4891306;29;20101;-77
2021/12/14 11:36:55;;;;;;;0.00;0.00;;;;;23.50;100243.00;;;;4870186;29;20064;-75
2021/12/14 11:39:30;;;;;;;0.00;0.00;;;;;23.50;100253.00;;;;4891795;29;20048;-76
2021/12/14 11:42:06;;;;;;;0.00;0.00;;;;;23.50;100239.00;;;;4890893;29;20044;-76
2021/12/14 11:44:50;;;;;;;0.20;0.20;;;;;23.50;100228.00;;;;4891215;29;20075;-76
2021/12/14 11:50:06;;;;;;;0.32;0.32;;;;;23.50;100246.00;;;;4891295;29;20052;-74
2021/12/14 11:52:53;;;;;;;0.00;0.00;;;;;23.40;100217.00;;;;4891003;29;20044;-75
2021/12/14 11:55:43;;;;;;;0.30;0.30;;;;;23.40;100221.00;;;;4891390;29;20052;-76
2021/12/14 11:58:36;;;;;;;0.10;0.10;;;;;23.40;100233.00;;;;4891281;29;20549;-77
2021/12/14 12:01:18;;;;;;;0.28;0.28;;;;;23.50;100223.00;;;;4891112;29;20641;-74
2021/12/14 12:03:52;;;;;;;0.00;0.00;;;;;23.60;100237.00;;;;4891060;29;20413;-74
2021/12/14 12:09:32;;;;;;;0.00;0.00;;;;;23.60;100240.00;;;;4890699;29;20054;-75
2021/12/14 12:12:07;;;;;;;0.10;0.10;;;;;23.60;100243.00;;;;4891876;29;20061;-74
2021/12/14 12:14:39;;;;;;;0.10;0.10;;;;;23.50;100247.00;;;;4891693;29;20052;-74
2021/12/14 12:17:24;;;;;;;0.28;0.28;;;;;23.50;100261.00;;;;4891346;29;20040;-75
2021/12/14 12:20:03;;;;;;;1.33;1.23;;;;;23.50;100238.00;;;;4906823;29;20060;-75
2021/12/14 12:22:38;;;;;;;0.00;0.00;;;;;23.40;100267.00;;;;4894874;29;20052;-74
2021/12/14 12:25:15;;;;;;;3.60;1.02;;;;;23.30;100243.00;;;;4894586;29;20040;-75
2021/12/14 12:28:07;;;;;;;0.00;0.00;;;;;23.30;100242.00;;;;4908614;29;20048;-76
2021/12/14 12:30:53;;;;;;;0.00;0.00;;;;;23.30;100232.00;;;;4894450;29;20059;-76
2021/12/14 12:33:31;;;;;;;0.00;0.00;;;;;23.40;100238.00;;;;4893659;29;20133;-74
2021/12/14 12:36:07;;;;;;;0.00;0.00;;;;;23.50;100233.00;;;;4894829;29;20616;-75
2021/12/14 12:38:49;;;;;;;0.00;0.00;;;;;23.60;100234.00;;;;4894692;29;20100;-75
2021/12/14 12:41:51;;;;;;;0.00;0.00;;;;;23.60;100235.00;;;;4892758;29;20428;-75
2021/12/14 12:44:23;;;;;;;1.10;0.88;;;;;23.60;100242.00;;;;4894122;29;20132;-75
2021/12/14 12:46:59;;;;;;;0.00;0.00;;;;;23.60;100234.00;;;;4894627;29;20108;-75
2021/12/14 12:49:35;;;;;;;0.10;0.10;;;;;23.50;100230.00;;;;4894291;29;20055;-76
2021/12/14 12:52:13;;;;;;;0.52;0.52;;;;;23.50;100246.00;;;;4894689;29;20049;-75
2021/12/14 12:55:05;;;;;;;0.10;0.10;;;;;23.50;100241.00;;;;4894035;29;20053;-74
2021/12/14 12:57:38;;;;;;;;;;;;;23.40;100239.00;;;;4895606;29;20049;-74
2021/12/14 13:00:28;;;;;;;0.00;0.00;;;;;23.50;100232.00;;;;4894596;29;20303;-76
2021/12/14 13:03:09;;;;;;;0.00;0.00;;;;;23.50;100226.00;;;;4895069;29;20049;-75
2021/12/14 13:05:42;;;;;;;;;;;;;23.50;100221.00;;;;4895270;29;20100;-76
2021/12/14 13:08:31;;;;;;;0.00;0.00;;;;;23.50;100189.00;;;;4894365;29;19987;-75
2021/12/14 13:11:18;;;;;;;0.40;0.40;;;;;23.50;100192.00;;;;4908240;29;20520;-74
2021/12/14 13:13:57;;;;;;;0.30;0.25;;;;;23.50;100202.00;;;;4908339;29;20127;-75
2021/12/14 13:16:37;;;;;;;1.05;1.05;;;;;23.50;100209.00;;;;4893911;29;20140;-75
2021/12/14 13:19:28;;;;;;;0.10;0.10;;;;;23.50;100201.00;;;;4894591;29;20127;-77
2021/12/14 13:21:58;;;;;;;1.40;1.30;;;;;23.50;100214.00;;;;4893700;29;20049;-77
2021/12/14 13:24:40;;;;;;;0.00;0.00;;;;;23.50;100189.00;;;;4893389;29;20473;-76
2021/12/14 13:27:16;;;;;;;0.00;0.00;;;;;23.60;100212.00;;;;4893194;29;20421;-76
2021/12/14 13:29:58;;;;;;;0.00;0.00;;;;;23.70;100208.00;;;;4892923;29;20124;-77
2021/12/14 13:32:33;;;;;;;0.10;0.05;;;;;23.70;100200.00;;;;4892363;29;20520;-76
2021/12/14 13:35:18;;;;;;;0.00;0.00;;;;;23.60;100216.00;;;;4893268;29;20071;-75
2021/12/14 13:38:02;;;;;;;0.60;0.60;;;;;23.60;100207.00;;;;4893806;29;20053;-74
2021/12/14 13:40:41;;;;;;;1.40;0.82;;;;;23.50;100214.00;;;;4893249;29;20115;-75
2021/12/14 13:43:11;;;;;;;3.42;1.92;;;;;23.50;100217.00;;;;4894055;29;20052;-75